< < Back
Terminal Aerodrome Forecast


Current Version              Previous Versions:   1  2  3  4  5  6  7  8  9  

Terminal Aerodrome Forecast

322
FTUS42 KFFC 221957 AAA
TAFATL
TAF AMD
KATL 221957Z 2220/2324 09009KT 2SM -DZ BR OVC003
     FM222300 09010KT 4SM BR OVC006
     FM230300 09010KT 2SM -DZ BR OVC004
     FM230800 10008KT 1/2SM -DZ FG OVC002
     FM231500 11007KT 2SM -SHRA BR OVC008
     FM231900 13006KT 6SM -SHRA BR OVC012=



Latest METAR

238
SAUS70 KWBC 230100
MTRATL
METAR KATL 230052Z 10011KT 8SM -RA OVC006 07/06 A2992 RMK AO2 SLP135 CIG
004V008 PCPN VRY LGT P0011 T00720056


USA.gov is the U.S. government's official web portal to all federal, state and local government web resources and services.